Terminal Aerodrome Forecast
Issued by NWS Quad Cities IA IL

Home | Current Version | Previous Version | Text Only | Print | Product List | Glossary On
Versions: 1 2 3 4 5 6 7 8 9 10 11 12 13 14 15 16 17 18 19 20
000
FTUS43 KDVN 031211 AAA
TAFDBQ
TAF AMD
KDBQ 031211Z 0312/0412 20006KT P6SM FEW040 SCT250
      TEMPO 0312/0313 3SM BR
     FM040100 17003KT P6SM SKC=

USA.gov is the U.S. government's official web portal to all federal, state and local government web resources and services.